Time;durP1;ratioP1;P1;durP2;ratioP2;P2;SDS_P1;SDS_P2;PMS_P1;PMS_P2;Temp;Humidity;BMP_temperature;BMP_pressure;BME280_temperature;BME280_humidity;BME280_pressure;Samples;Min_cycle;Max_cycle;Signal;HPM_P1;HPM_P2
2021/03/21 00:00:30;;;;;;;9.45;2.70;;;4.30;99.90;;;4.92;59.98;101280.44;5066829;28;20283;-73
2021/03/21 00:02:57;;;;;;;8.50;2.92;;;4.30;99.90;;;4.94;60.39;101273.50;5062767;28;20223;-73
2021/03/21 00:05:24;;;;;;;8.50;2.67;;;4.40;99.90;;;4.98;60.33;101272.63;5061639;28;20200;-73
2021/03/21 00:07:56;;;;;;;8.80;3.10;;;4.40;99.90;;;5.00;60.25;101273.50;5041970;28;20300;-73
2021/03/21 00:10:28;;;;;;;10.23;3.28;;;4.40;99.90;;;5.00;60.62;101272.63;5061449;28;20196;-74
2021/03/21 00:12:56;;;;;;;10.10;3.00;;;4.40;99.90;;;4.98;60.85;101267.47;5056249;28;20599;-73
2021/03/21 00:15:23;;;;;;;10.05;2.80;;;4.40;99.90;;;4.95;60.80;101272.66;5044253;28;20294;-74
2021/03/21 00:17:50;;;;;;;9.75;3.40;;;4.40;99.90;;;4.95;61.24;101274.38;5041652;28;20279;-74
2021/03/21 00:20:22;;;;;;;9.82;3.15;;;4.40;99.90;;;4.96;61.29;101271.78;5043793;28;20263;-74
2021/03/21 00:22:48;;;;;;;9.77;3.05;;;4.40;99.90;;;4.96;61.39;101258.81;5047668;28;20216;-74
2021/03/21 00:25:19;;;;;;;12.33;3.37;;;4.40;99.90;;;4.97;61.64;101257.09;5059774;28;20244;-73
2021/03/21 00:27:45;;;;;;;12.35;4.00;;;4.40;99.90;;;4.98;61.85;101253.63;5049047;28;20212;-74
2021/03/21 00:30:19;;;;;;;10.38;3.70;;;4.40;99.90;;;4.96;62.33;101253.63;5063693;28;20651;-74
2021/03/21 00:32:45;;;;;;;10.60;3.38;;;4.40;99.90;;;4.94;62.62;101239.81;5057176;28;20709;-71
2021/03/21 00:35:12;;;;;;;9.63;3.55;;;4.40;99.90;;;4.92;63.52;101238.94;5064733;28;20184;-74
2021/03/21 00:37:41;;;;;;;10.55;3.40;;;4.40;99.90;;;4.94;63.59;101231.16;5058074;28;20191;-75
2021/03/21 00:40:13;;;;;;;12.18;3.33;;;4.40;99.90;;;4.95;63.85;101230.31;5048565;28;20200;-74
2021/03/21 00:42:40;;;;;;;7.60;3.15;;;4.40;99.90;;;4.94;64.01;101216.47;5057694;28;20226;-75
2021/03/21 00:45:09;;;;;;;8.95;3.30;;;4.40;99.90;;;4.96;64.34;101213.88;5044679;28;20188;-73
2021/03/21 00:47:37;;;;;;;10.50;3.80;;;4.40;99.90;;;4.94;64.48;101210.41;5040600;28;20612;-75
2021/03/21 00:50:07;;;;;;;9.63;3.50;;;4.40;99.90;;;4.92;65.38;101201.81;5062333;28;20192;-74
2021/03/21 00:52:33;;;;;;;10.38;3.90;;;4.40;99.90;;;4.87;66.55;101193.22;5046874;28;20211;-75
2021/03/21 00:55:00;;;;;;;12.50;4.13;;;4.40;99.90;;;4.86;67.36;101196.66;5057880;28;20672;-75
2021/03/21 00:57:26;;;;;;;11.50;4.20;;;4.30;99.90;;;4.83;67.86;101184.59;5049334;28;20200;-75
2021/03/21 00:59:52;;;;;;;9.95;3.88;;;4.30;99.90;;;4.83;68.38;101187.19;5039033;28;20560;-75
2021/03/21 01:02:19;;;;;;;14.68;4.30;;;4.30;99.90;;;4.81;68.87;101188.06;5044727;28;20307;-74
2021/03/21 01:04:48;;;;;;;11.57;4.13;;;4.30;99.90;;;4.77;69.21;101174.25;5060347;28;20193;-76
2021/03/21 01:07:15;;;;;;;12.18;3.90;;;4.20;99.90;;;4.72;69.72;101160.47;5062150;28;20211;-75
2021/03/21 01:09:42;;;;;;;15.10;4.85;;;4.20;99.90;;;4.70;70.32;101170.00;5065189;28;20238;-73
2021/03/21 01:12:10;;;;;;;11.87;4.43;;;4.20;99.90;;;4.66;70.65;101163.09;5060972;28;20211;-74
2021/03/21 01:14:36;;;;;;;13.32;4.03;;;4.20;99.90;;;4.66;71.21;101172.59;5047165;28;20212;-74
2021/03/21 01:17:04;;;;;;;14.25;4.95;;;4.10;99.90;;;4.66;71.92;101152.75;5047524;28;20294;-75
2021/03/21 01:19:30;;;;;;;12.47;5.23;;;4.20;99.90;;;4.69;72.04;101155.31;5055970;28;20891;-74
2021/03/21 01:21:57;;;;;;;14.27;4.90;;;4.10;99.90;;;4.67;72.22;101151.84;5045869;28;20215;-75
2021/03/21 01:24:25;;;;;;;13.50;5.03;;;4.10;99.90;;;4.66;72.81;101146.69;5043051;28;20614;-75
2021/03/21 01:27:00;;;;;;;12.07;4.53;;;4.10;99.90;;;4.67;73.21;101140.66;5066877;28;20700;-74
2021/03/21 01:29:27;;;;;;;14.15;5.18;;;4.10;99.90;;;4.65;73.54;101130.31;5040887;28;20203;-73
2021/03/21 01:31:53;;;;;;;12.63;4.88;;;4.10;99.90;;;4.62;74.43;101130.28;5060007;28;20220;-74
2021/03/21 01:34:20;;;;;;;13.40;5.45;;;4.00;99.90;;;4.58;75.08;101123.44;5044521;28;20462;-72
2021/03/21 01:36:47;;;;;;;13.60;4.90;;;4.00;99.90;;;4.60;75.23;101116.53;5059934;28;20207;-74
2021/03/21 01:39:27;;;;;;;12.98;5.07;;;4.00;99.90;;;4.58;75.81;101113.06;5043241;28;20695;-74
2021/03/21 01:41:58;;;;;;;14.13;5.10;;;4.00;99.90;;;4.55;76.00;101113.09;5058401;28;20239;-75
2021/03/21 01:44:25;;;;;;;11.50;4.88;;;4.00;99.90;;;4.55;76.73;101107.91;5054758;28;20215;-75
2021/03/21 01:47:20;;;;;;;12.37;5.13;;;4.00;99.90;;;4.57;76.89;101100.97;5043857;28;20216;-74
2021/03/21 01:49:50;;;;;;;12.50;5.20;;;4.00;99.90;;;4.56;76.99;101098.38;5054160;28;20188;-74
2021/03/21 01:52:35;;;;;;;14.33;5.63;;;4.00;99.90;;;4.55;77.70;101091.50;5059993;28;20291;-75
2021/03/21 01:55:10;;;;;;;15.93;5.43;;;4.00;99.90;;;4.53;77.90;101088.94;5061500;28;20196;-75
2021/03/21 01:57:36;;;;;;;13.07;5.32;;;3.90;99.90;;;4.51;78.46;101084.63;5049931;28;20197;-74
2021/03/21 02:00:07;;;;;;;16.93;6.33;;;3.90;99.90;;;4.49;78.92;101073.38;5055117;28;20193;-75
2021/03/21 02:02:34;;;;;;;14.50;6.33;;;3.90;99.90;;;4.47;79.37;101068.22;5058242;28;20769;-74
2021/03/21 02:05:00;;;;;;;14.23;5.72;;;3.90;99.90;;;4.45;80.06;101058.75;5054496;28;20193;-74
2021/03/21 02:07:49;;;;;;;14.93;5.87;;;3.90;99.90;;;4.43;80.23;101056.19;5037036;28;20208;-74
2021/03/21 02:10:31;;;;;;;15.07;6.27;;;3.90;99.90;;;4.41;80.87;101046.69;5060704;28;20623;-74
2021/03/21 02:13:06;;;;;;;17.27;6.67;;;3.80;99.90;;;4.42;81.19;101049.25;5055481;28;20572;-73
2021/03/21 02:15:40;;;;;;;15.63;6.60;;;3.80;99.90;;;4.43;82.15;101047.53;5066568;28;20229;-74
2021/03/21 02:18:17;;;;;;;18.03;7.20;;;3.80;99.90;;;4.43;82.10;101044.97;5065090;28;20272;-74
2021/03/21 02:21:30;;;;;;;16.70;7.00;;;3.80;99.90;;;4.38;82.96;101041.53;5038554;28;20675;-74
2021/03/21 02:24:51;;;;;;;17.70;6.80;;;3.70;99.90;;;4.31;83.85;101035.53;5040614;28;20196;-73
2021/03/21 02:27:46;;;;;;;17.17;6.83;;;3.70;99.90;;;4.28;84.46;101030.41;5063218;28;20219;-72
2021/03/21 02:30:20;;;;;;;16.03;6.63;;;3.70;99.90;;;4.28;84.77;101019.16;5039978;28;20562;-74
2021/03/21 02:32:56;;;;;;;17.33;7.13;;;3.70;99.90;;;4.27;85.26;101013.13;5051819;28;20216;-74
2021/03/21 02:35:31;;;;;;;16.83;7.03;;;3.70;99.90;;;4.28;85.51;101014.84;5055255;28;20255;-75
2021/03/21 02:38:11;;;;;;;16.30;7.03;;;3.70;99.90;;;4.30;85.96;101000.19;5060519;28;20282;-75
2021/03/21 02:40:44;;;;;;;17.03;7.20;;;3.70;99.90;;;4.33;86.62;100996.69;5067072;28;20274;-74
2021/03/21 02:43:22;;;;;;;16.67;7.37;;;3.70;99.90;;;4.33;86.74;100991.50;5046110;28;20758;-73
2021/03/21 02:45:54;;;;;;;17.70;7.00;;;3.70;99.90;;;4.34;87.08;100986.31;5044485;28;20290;-74
2021/03/21 02:48:28;;;;;;;16.90;6.87;;;3.70;99.90;;;4.36;87.25;100992.34;5046226;28;20215;-74
2021/03/21 02:51:01;;;;;;;16.73;6.87;;;3.70;99.90;;;4.35;87.51;100993.22;5055614;28;20848;-75
2021/03/21 02:53:36;;;;;;;17.50;7.47;;;3.70;99.90;;;4.35;88.10;100980.28;5060893;28;20196;-74
2021/03/21 02:56:06;;;;;;;18.73;7.03;;;3.70;99.90;;;4.36;88.40;100981.97;5046309;28;20222;-73
2021/03/21 02:58:42;;;;;;;17.13;7.53;;;3.70;99.90;;;4.38;88.73;100977.66;5063465;28;20215;-74
2021/03/21 03:01:16;;;;;;;17.93;7.43;;;3.80;99.90;;;4.39;89.07;100971.59;5045533;28;20656;-74
2021/03/21 03:03:49;;;;;;;19.17;7.60;;;3.70;99.90;;;4.39;89.23;100963.81;5055184;28;20189;-75
2021/03/21 03:06:21;;;;;;;16.83;6.90;;;3.80;99.90;;;4.39;89.19;100963.81;5066501;28;20313;-75
2021/03/21 03:08:53;;;;;;;16.33;6.60;;;3.80;99.90;;;4.40;89.53;100964.69;5070637;28;20196;-74
2021/03/21 03:11:29;;;;;;;17.70;7.37;;;3.80;99.90;;;4.40;90.04;100957.78;5052437;28;20208;-74
2021/03/21 03:14:01;;;;;;;18.13;7.57;;;3.80;99.90;;;4.41;90.35;100946.53;5058627;28;20176;-74
2021/03/21 03:16:38;;;;;;;19.07;7.87;;;3.80;99.90;;;4.43;90.63;100941.34;5044760;28;20212;-74
2021/03/21 03:19:21;;;;;;;18.67;6.97;;;3.80;99.90;;;4.43;90.47;100942.22;5048120;28;20202;-75
2021/03/21 03:21:58;;;;;;;17.23;7.17;;;3.80;99.90;;;4.41;90.69;100933.59;5065859;28;20635;-74
2021/03/21 03:24:39;;;;;;;15.03;7.03;;;3.80;99.90;;;4.43;91.47;100931.00;5042583;28;20221;-74
2021/03/21 03:27:12;;;;;;;17.20;6.97;;;3.80;99.90;;;4.44;91.27;100927.50;5046145;28;20257;-74
2021/03/21 03:29:47;;;;;;;16.10;6.87;;;3.80;99.90;;;4.44;91.67;100915.44;5046793;28;20211;-73
2021/03/21 03:32:16;;;;;;;17.33;7.30;;;3.80;99.90;;;4.46;91.90;100926.63;5062497;28;20219;-74
2021/03/21 03:34:51;;;;;;;16.23;6.90;;;3.80;99.90;;;4.49;92.34;100920.56;5063105;28;20188;-74
2021/03/21 03:37:18;;;;;;;16.63;6.60;;;3.90;99.90;;;4.52;92.06;100912.78;5040194;28;20192;-74
2021/03/21 03:39:45;;;;;;;17.80;7.10;;;3.90;99.90;;;4.51;92.11;100908.44;5049180;28;20231;-75
2021/03/21 03:42:22;;;;;;;15.77;6.83;;;3.90;99.90;;;4.51;92.60;100909.31;5046794;28;20212;-74
2021/03/21 03:45:05;;;;;;;17.63;6.80;;;3.90;99.90;;;4.51;92.93;100898.97;5063468;28;20257;-74
2021/03/21 03:47:53;;;;;;;17.10;6.43;;;3.90;99.90;;;4.54;92.91;100904.09;5062831;28;20220;-75
2021/03/21 03:50:35;;;;;;;15.53;6.33;;;3.90;99.90;;;4.52;92.76;100889.47;5058576;28;20634;-74
2021/03/21 03:53:14;;;;;;;16.07;6.80;;;3.90;99.90;;;4.54;93.31;100882.50;5064899;28;21103;-74
2021/03/21 03:55:52;;;;;;;19.60;6.70;;;3.90;99.90;;;4.54;93.12;100877.31;5065309;28;20196;-74
2021/03/21 03:58:27;;;;;;;15.87;6.37;;;4.00;99.90;;;4.55;93.50;100866.97;5049240;28;20552;-74
2021/03/21 04:01:05;;;;;;;15.27;6.53;;;3.90;99.90;;;4.57;93.46;100867.78;5060384;28;20246;-74
2021/03/21 04:03:41;;;;;;;16.53;6.53;;;4.00;99.90;;;4.58;93.62;100858.28;5067799;28;20214;-74
2021/03/21 04:06:15;;;;;;;13.77;5.57;;;4.00;99.90;;;4.62;94.08;100854.81;5065239;28;20203;-75
2021/03/21 04:08:48;;;;;;;14.40;5.63;;;4.00;99.90;;;4.64;94.06;100846.13;5047869;28;21147;-74
2021/03/21 04:11:21;;;;;;;14.17;5.67;;;4.00;99.90;;;4.65;94.10;100840.09;5068049;28;20260;-74
2021/03/21 04:13:57;;;;;;;13.77;5.17;;;4.10;99.90;;;4.68;94.59;100842.63;5062429;28;20188;-75
2021/03/21 04:16:32;;;;;;;14.67;5.67;;;4.00;99.90;;;4.73;94.01;100833.06;5049368;28;20243;-74
2021/03/21 04:19:08;;;;;;;13.40;5.37;;;4.10;99.90;;;4.76;94.32;100827.84;5051809;28;20289;-75
2021/03/21 04:21:42;;;;;;;12.43;5.03;;;4.10;99.90;;;4.80;94.13;100826.06;5067200;28;20227;-74
2021/03/21 04:24:18;;;;;;;11.90;4.77;;;4.10;99.90;;;4.81;93.99;100815.69;5049859;28;20192;-74
2021/03/21 04:26:52;;;;;;;15.40;5.13;;;4.20;99.90;;;4.81;94.40;100813.09;5040202;28;20216;-75
2021/03/21 04:29:26;;;;;;;13.07;4.50;;;4.20;99.90;;;4.84;94.19;100812.19;5067443;28;20274;-73
2021/03/21 04:31:59;;;;;;;13.13;4.77;;;4.20;99.90;;;4.84;94.24;100810.47;5048710;28;20303;-75
2021/03/21 04:34:30;;;;;;;13.17;5.10;;;4.20;99.90;;;4.86;94.15;100811.31;5064895;28;20204;-74
2021/03/21 04:36:59;;;;;;;13.17;4.80;;;4.20;99.90;;;4.86;94.48;100811.31;5047924;28;20193;-74
2021/03/21 04:39:31;;;;;;;12.35;4.35;;;4.20;99.90;;;4.86;94.21;100807.84;5049006;28;20674;-74
2021/03/21 04:42:06;;;;;;;11.23;4.03;;;4.30;99.90;;;4.87;94.44;100810.41;5061123;28;20718;-74
2021/03/21 04:44:40;;;;;;;12.23;4.68;;;4.30;99.90;;;4.88;94.64;100806.97;5066759;28;20215;-75
2021/03/21 04:47:13;;;;;;;12.00;4.15;;;4.30;99.90;;;4.89;94.89;100813.84;5047308;28;20680;-75
2021/03/21 04:49:40;;;;;;;10.38;3.95;;;4.20;99.90;;;4.89;94.95;100792.25;5065895;28;20198;-75
2021/03/21 04:52:34;;;;;;;11.93;4.70;;;4.30;99.90;;;4.89;94.93;100793.13;5050033;28;20211;-74
2021/03/21 04:55:06;;;;;;;11.10;4.20;;;4.30;99.90;;;4.90;95.17;100794.84;5047175;28;20204;-75
2021/03/21 04:57:39;;;;;;;11.47;4.53;;;4.30;99.90;;;4.90;94.85;100783.63;5047117;28;20192;-74
2021/03/21 05:00:13;;;;;;;12.68;3.80;;;4.30;99.90;;;4.91;95.16;100780.13;5043705;28;20271;-74
2021/03/21 05:02:46;;;;;;;11.33;3.80;;;4.30;99.90;;;4.89;95.40;100774.97;5066591;28;20302;-74
2021/03/21 05:05:25;;;;;;;14.00;3.97;;;4.30;99.90;;;4.90;95.18;100781.88;5045634;28;20203;-74
2021/03/21 05:07:57;;;;;;;9.85;3.90;;;4.30;99.90;;;4.89;95.38;100787.94;5046582;28;20222;-74
2021/03/21 05:10:34;;;;;;;12.03;3.50;;;4.30;99.90;;;4.92;95.43;100787.03;5048311;28;20188;-74
2021/03/21 05:13:06;;;;;;;11.70;3.45;;;4.30;99.90;;;4.92;95.70;100782.69;5059103;28;20212;-75
2021/03/21 05:15:48;;;;;;;12.13;4.33;;;4.30;99.90;;;4.96;95.74;100783.50;5063127;28;20231;-73
2021/03/21 05:18:29;;;;;;;10.80;3.27;;;4.30;99.90;;;4.95;96.00;100782.69;5060059;28;20246;-74
2021/03/21 05:21:09;;;;;;;9.27;3.30;;;4.40;99.90;;;4.97;95.88;100780.91;5065207;28;20207;-75
2021/03/21 05:23:55;;;;;;;9.52;3.38;;;4.40;99.90;;;4.98;95.99;100772.25;5045032;28;20191;-74
2021/03/21 05:26:30;;;;;;;10.77;3.28;;;4.40;99.90;;;4.99;95.86;100761.00;5047942;28;20314;-74
2021/03/21 05:29:26;;;;;;;8.15;3.00;;;4.40;99.90;;;5.02;96.28;100773.91;5048169;28;20321;-75
2021/03/21 05:31:53;;;;;;;10.07;2.92;;;4.40;99.90;;;5.04;96.41;100771.28;5063271;28;20307;-75
2021/03/21 05:34:20;;;;;;;10.05;3.45;;;4.40;99.90;;;5.07;96.21;100769.50;5065640;28;20201;-75
2021/03/21 05:37:05;;;;;;;11.47;3.40;;;4.40;99.90;;;5.10;96.34;100766.03;5060731;28;20196;-74
2021/03/21 05:39:45;;;;;;;9.52;2.90;;;4.50;99.90;;;5.12;96.49;100765.13;5062684;28;20204;-72
2021/03/21 05:42:55;;;;;;;7.63;2.90;;;4.50;99.90;;;5.16;96.52;100765.94;5061209;28;20596;-75
2021/03/21 05:45:55;;;;;;;7.70;2.40;;;4.50;99.90;;;5.17;96.58;100756.44;5030822;28;20261;-74
2021/03/21 05:49:10;;;;;;;8.77;2.88;;;4.60;99.90;;;5.20;96.71;100740.81;5063264;28;20215;-74
2021/03/21 05:52:21;;;;;;;6.93;2.28;;;4.60;99.90;;;5.22;96.66;100744.25;5063775;28;20227;-75
2021/03/21 05:55:35;;;;;;;8.43;2.67;;;4.60;99.90;;;5.23;97.08;100740.75;5044541;28;20273;-75
2021/03/21 05:58:50;;;;;;;7.87;2.30;;;4.70;99.90;;;5.27;96.89;100742.44;5063054;28;20270;-75
2021/03/21 06:01:52;;;;;;;7.85;2.42;;;4.70;99.90;;;5.28;97.02;100741.53;5045115;28;20207;-74
2021/03/21 06:05:16;;;;;;;7.80;2.30;;;4.70;99.90;;;5.29;97.14;100740.69;5055678;28;20200;-75
2021/03/21 06:08:22;;;;;;;7.63;2.50;;;4.70;99.90;;;5.30;97.42;100734.59;5030085;28;20718;-74
2021/03/21 06:11:27;;;;;;;7.85;2.65;;;4.70;99.90;;;5.32;97.63;100730.25;5062723;28;20206;-75
2021/03/21 06:14:25;;;;;;;7.43;2.30;;;4.70;99.90;;;5.35;97.56;100743.16;5066369;28;20203;-75
2021/03/21 06:17:20;;;;;;;8.00;2.60;;;4.70;99.90;;;5.37;97.64;100731.91;5033282;28;20227;-74
2021/03/21 06:20:17;;;;;;;7.38;2.35;;;4.80;99.90;;;5.41;97.77;100727.53;5062595;28;20545;-74
2021/03/21 06:23:15;;;;;;;10.05;2.70;;;4.80;99.90;;;5.44;97.80;100730.94;5030726;28;20221;-75
2021/03/21 06:25:54;;;;;;;7.35;2.70;;;4.90;99.90;;;5.47;97.97;100724.81;5050584;28;20252;-75
2021/03/21 06:29:18;;;;;;;6.32;2.20;;;4.90;99.90;;;5.47;97.82;100724.81;5065601;28;20212;-74
2021/03/21 06:32:21;;;;;;;7.87;2.70;;;4.90;99.90;;;5.48;98.16;100724.78;5047682;28;20241;-74
2021/03/21 06:34:58;;;;;;;7.97;2.60;;;5.00;99.90;;;5.48;98.17;100729.09;5044017;28;20250;-74
2021/03/21 06:38:03;;;;;;;7.78;2.45;;;5.00;99.90;;;5.49;98.23;100723.06;5063575;28;20220;-74
2021/03/21 06:40:55;;;;;;;8.52;2.42;;;5.00;99.90;;;5.50;98.35;100716.97;5066769;28;20237;-75
2021/03/21 06:44:03;;;;;;;8.02;2.85;;;5.00;99.90;;;5.49;98.30;100712.69;5047546;28;20726;-74
2021/03/21 06:47:25;;;;;;;7.85;2.50;;;5.00;99.90;;;5.49;98.52;100707.50;5069625;28;20295;-75
2021/03/21 06:50:21;;;;;;;9.27;2.38;;;5.00;99.90;;;5.51;98.56;100705.72;5026065;28;20280;-74
2021/03/21 06:52:58;;;;;;;8.43;2.70;;;5.00;99.90;;;5.52;98.66;100708.28;5025524;28;20221;-74
2021/03/21 06:55:36;;;;;;;7.78;2.42;;;5.00;99.90;;;5.54;98.77;100706.53;5055492;28;20552;-75
2021/03/21 06:59:01;;;;;;;9.43;2.58;;;5.10;99.90;;;5.58;99.01;100713.38;5062724;28;20709;-74
2021/03/21 07:01:40;;;;;;;8.17;2.37;;;5.10;99.90;;;5.61;99.16;100702.91;5066261;28;20273;-75
2021/03/21 07:05:05;;;;;;;8.30;2.30;;;5.20;99.90;;;5.65;99.21;100704.59;5069584;28;20192;-75
2021/03/21 07:08:29;;;;;;;8.63;2.67;;;5.20;99.90;;;5.68;99.50;100706.25;5066632;28;20208;-74
2021/03/21 07:11:44;;;;;;;8.32;2.42;;;5.20;99.90;;;5.73;99.73;100701.84;5059841;28;20298;-74
2021/03/21 07:15:02;;;;;;;8.90;2.70;;;5.30;99.90;;;5.75;99.91;100705.28;5064152;28;20283;-75
2021/03/21 07:18:49;;;;;;;7.95;2.38;;;5.30;99.90;;;5.78;100.00;100697.44;5062348;28;20196;-74
2021/03/21 07:22:10;;;;;;;7.63;2.40;;;5.40;99.90;;;5.80;100.00;100695.66;5023334;28;20192;-74
2021/03/21 07:25:25;;;;;;;8.18;2.78;;;5.40;99.90;;;5.84;100.00;100695.63;5044420;28;20196;-74
2021/03/21 07:28:19;;;;;;;10.77;3.50;;;5.40;99.90;;;5.83;100.00;100693.03;5064591;28;20212;-74
2021/03/21 07:31:07;;;;;;;9.57;3.00;;;5.40;99.90;;;5.83;100.00;100693.03;5062334;28;20243;-74
2021/03/21 07:33:54;;;;;;;9.48;3.70;;;5.40;99.90;;;5.85;100.00;100701.66;5061831;28;20264;-74
2021/03/21 07:36:30;;;;;;;10.80;3.45;;;5.40;99.90;;;5.89;100.00;100692.94;5059693;28;20188;-74
2021/03/21 07:39:20;;;;;;;9.20;3.20;;;5.50;99.90;;;5.94;100.00;100691.97;5060691;28;20199;-74
2021/03/21 07:42:19;;;;;;;9.77;3.20;;;5.50;99.90;;;6.01;100.00;100692.72;5062144;28;20211;-73
2021/03/21 07:45:19;;;;;;;7.97;3.13;;;5.60;99.90;;;6.07;100.00;100700.38;5060209;28;20224;-73
2021/03/21 07:48:07;;;;;;;9.93;3.35;;;5.70;99.90;;;6.14;100.00;100699.38;5057087;28;20218;-73
2021/03/21 07:50:53;;;;;;;8.82;2.50;;;5.80;99.90;;;6.25;100.00;100697.41;5057125;28;20278;-74
2021/03/21 07:53:31;;;;;;;8.05;2.63;;;5.90;99.90;;;6.31;100.00;100692.09;5053813;28;20212;-73
2021/03/21 07:56:08;;;;;;;8.23;2.42;;;5.90;99.90;;;6.32;100.00;100688.59;5052873;28;20192;-72
2021/03/21 07:58:43;;;;;;;7.13;2.35;;;5.90;99.90;;;6.30;100.00;100685.16;5046854;28;20220;-74
2021/03/21 08:01:10;;;;;;;7.18;2.00;;;5.90;99.90;;;6.30;100.00;100687.75;5053050;28;20234;-72
2021/03/21 08:03:49;;;;;;;8.73;2.03;;;5.90;99.90;;;6.32;100.00;100693.78;5033735;28;20264;-75
2021/03/21 08:06:27;;;;;;;5.82;1.77;;;5.90;99.90;;;6.33;100.00;100679.91;5053303;28;20201;-73
2021/03/21 08:09:06;;;;;;;5.28;1.65;;;5.90;99.90;;;6.35;100.00;100685.94;5046480;28;20214;-77
2021/03/21 08:11:39;;;;;;;5.68;1.58;;;5.90;99.90;;;6.38;100.00;100683.25;5055753;28;20711;-73
2021/03/21 08:14:24;;;;;;;8.50;2.55;;;6.00;99.90;;;6.44;100.00;100692.69;5055038;28;20373;-76
2021/03/21 08:16:56;;;;;;;4.53;1.50;;;6.00;99.90;;;6.45;100.00;100684.00;5057099;28;20212;-75
2021/03/21 08:19:29;;;;;;;6.13;1.60;;;6.00;99.90;;;6.47;100.00;100683.06;5028222;28;20227;-74
2021/03/21 08:21:58;;;;;;;4.25;1.45;;;6.10;99.90;;;6.49;100.00;100680.44;5060048;28;20216;-75
2021/03/21 08:24:31;;;;;;;4.43;1.40;;;6.10;99.90;;;6.54;100.00;100674.25;5042141;28;20181;-76
2021/03/21 08:27:04;;;;;;;4.57;1.40;;;6.10;99.90;;;6.62;100.00;100674.06;5053912;28;20215;-76
2021/03/21 08:29:57;;;;;;;4.55;1.40;;;6.20;99.90;;;6.62;100.00;100677.53;5042177;28;20249;-72
2021/03/21 08:32:26;;;;;;;4.50;1.55;;;6.30;99.90;;;6.65;100.00;100677.47;5062218;28;20215;-78
2021/03/21 08:34:53;;;;;;;5.07;1.15;;;6.30;99.90;;;6.63;100.00;100679.25;5051768;28;20204;-75
2021/03/21 08:37:35;;;;;;;5.70;1.23;;;6.30;99.90;;;6.63;100.00;100668.00;5033298;28;20203;-73
2021/03/21 08:40:18;;;;;;;5.07;1.50;;;6.30;99.90;;;6.57;100.00;100671.59;5054897;28;20203;-76
2021/03/21 08:42:49;;;;;;;8.98;2.25;;;6.30;99.90;;;6.58;100.00;100672.44;5040550;28;20350;-75
2021/03/21 08:45:37;;;;;;;4.93;1.55;;;6.30;99.90;;;6.68;100.00;100672.19;5041076;28;21013;-74
2021/03/21 08:48:30;;;;;;;8.75;1.55;;;6.40;99.90;;;6.74;100.00;100666.00;5025676;28;20208;-76
2021/03/21 08:51:20;;;;;;;8.45;2.17;;;6.40;99.90;;;6.76;99.98;100674.63;5059206;28;20246;-75
2021/03/21 08:54:00;;;;;;;7.03;1.77;;;6.40;99.90;;;6.78;99.41;100672.84;5056388;28;20200;-74
2021/03/21 08:56:29;;;;;;;8.25;1.88;;;6.40;99.90;;;6.74;99.61;100672.06;5040831;28;20185;-74
2021/03/21 08:59:26;;;;;;;9.70;2.15;;;6.40;99.90;;;6.75;99.25;100683.34;5028702;28;20192;-75
2021/03/21 09:02:07;;;;;;;8.45;2.00;;;6.40;99.90;;;6.74;98.86;100674.66;5053861;28;20327;-74
2021/03/21 09:04:38;;;;;;;7.20;2.00;;;6.40;99.90;;;6.72;98.71;100686.84;5050901;28;20203;-76
2021/03/21 09:07:25;;;;;;;6.35;1.75;;;6.40;99.90;;;6.78;98.55;100684.09;5044448;28;20568;-75
2021/03/21 09:10:20;;;;;;;8.68;2.30;;;6.50;99.90;;;6.83;98.26;100682.25;5046047;28;20204;-75
2021/03/21 09:12:50;;;;;;;11.73;1.95;;;6.60;99.90;;;6.83;98.34;100684.84;5031426;28;20228;-76
2021/03/21 09:15:33;;;;;;;9.25;2.00;;;6.60;99.90;;;6.78;97.77;100698.84;5036412;28;20228;-76
2021/03/21 09:18:28;;;;;;;9.82;1.90;;;6.50;99.90;;;6.74;97.58;100708.47;5029613;28;20610;-75
2021/03/21 09:21:15;;;;;;;11.82;2.10;;;6.50;99.90;;;6.75;97.31;100701.53;5051027;28;20231;-78
2021/03/21 09:23:47;;;;;;;12.88;2.38;;;6.50;99.90;;;6.77;97.40;100700.59;5038752;28;20192;-75
2021/03/21 09:26:30;;;;;;;11.40;2.85;;;6.50;99.90;;;6.81;97.21;100704.84;5050970;28;20185;-76
2021/03/21 09:29:07;;;;;;;10.48;2.20;;;6.50;99.90;;;6.83;96.63;100707.41;5044251;28;20222;-75
2021/03/21 09:31:35;;;;;;;9.30;2.35;;;6.50;99.90;;;6.83;96.37;100713.44;5037439;28;20228;-73
2021/03/21 09:34:11;;;;;;;11.32;2.25;;;6.50;99.90;;;6.85;96.68;100716.03;5052304;28;20739;-77
2021/03/21 09:36:45;;;;;;;10.55;2.65;;;6.60;99.90;;;6.87;96.43;100711.63;5031129;28;21917;-76
2021/03/21 09:39:18;;;;;;;10.40;2.55;;;6.60;99.90;;;6.94;96.04;100724.47;5021455;28;20696;-77
2021/03/21 09:41:49;;;;;;;12.10;2.70;;;6.70;99.90;;;6.95;95.76;100723.56;5031801;28;20623;-76
2021/03/21 09:44:36;;;;;;;15.27;2.78;;;6.70;99.90;;;6.90;94.97;100720.22;5044281;28;20232;-74
2021/03/21 09:47:30;;;;;;;15.57;3.22;;;6.70;99.90;;;6.90;94.73;100733.22;5035751;28;20204;-73
2021/03/21 09:50:28;;;;;;;13.55;2.65;;;6.70;99.90;;;6.89;93.95;100739.34;5059157;28;20206;-78
2021/03/21 09:53:09;;;;;;;13.82;2.28;;;6.70;99.90;;;6.81;93.44;100730.84;5044234;28;20246;-77
2021/03/21 09:55:44;;;;;;;11.63;2.25;;;6.60;99.90;;;6.83;93.52;100734.25;5044367;28;20740;-78
2021/03/21 09:58:40;;;;;;;12.80;2.60;;;6.60;99.90;;;6.93;93.45;100750.53;5022199;28;20642;-78
2021/03/21 10:01:23;;;;;;;10.68;2.58;;;6.70;99.90;;;7.01;92.96;100749.47;5035527;28;20775;-77
2021/03/21 10:03:59;;;;;;;13.15;2.53;;;6.80;99.90;;;7.13;92.70;100750.94;5061731;28;20222;-77
2021/03/21 10:06:33;;;;;;;9.45;2.35;;;6.90;99.90;;;7.22;92.53;100761.97;5043718;28;20537;-75
2021/03/21 10:09:11;;;;;;;13.95;2.50;;;7.00;99.90;;;7.23;91.73;100761.06;5057302;28;20699;-74
2021/03/21 10:11:42;;;;;;;14.38;2.28;;;7.00;99.90;;;7.08;91.23;100761.41;5038326;28;20640;-74
2021/03/21 10:14:43;;;;;;;8.98;2.35;;;6.90;99.90;;;7.01;91.00;100761.59;5063136;28;20192;-74
2021/03/21 10:17:43;;;;;;;13.23;2.97;;;6.80;99.90;;;7.01;91.02;100766.81;5040324;28;20325;-73
2021/03/21 10:20:14;;;;;;;13.73;2.65;;;6.80;99.90;;;7.06;91.13;100762.38;5033794;28;20223;-73
2021/03/21 10:23:01;;;;;;;11.43;2.20;;;6.80;99.90;;;7.10;91.01;100774.41;5030055;28;20322;-73
2021/03/21 10:26:06;;;;;;;12.38;2.45;;;6.80;99.90;;;7.07;90.52;100772.72;5053215;28;20203;-73
2021/03/21 10:28:46;;;;;;;12.43;2.50;;;6.80;99.90;;;7.06;90.06;100773.63;5051096;28;20689;-73
2021/03/21 10:31:34;;;;;;;16.38;2.60;;;6.80;99.90;;;7.07;89.80;100780.53;5041687;28;20196;-73
2021/03/21 10:34:49;;;;;;;14.30;2.53;;;6.80;99.90;;;7.10;89.63;100787.44;5028104;28;20207;-73
2021/03/21 10:37:52;;;;;;;10.60;1.92;;;6.80;99.90;;;7.11;89.65;100787.41;5047428;28;20211;-74
2021/03/21 10:40:43;;;;;;;13.02;2.30;;;6.70;99.90;;;7.03;89.02;100793.66;5048695;28;20195;-73
2021/03/21 10:43:56;;;;;;;11.57;2.28;;;6.60;99.90;;;6.94;89.06;100796.44;5046072;28;20228;-73
2021/03/21 10:46:48;;;;;;;12.95;2.50;;;6.60;99.90;;;6.86;88.81;100799.22;5045871;28;20188;-73
2021/03/21 10:49:50;;;;;;;14.18;3.20;;;6.50;99.90;;;6.83;88.79;100798.44;5044493;28;20712;-73
2021/03/21 10:52:31;;;;;;;11.48;2.50;;;6.40;99.90;;;6.78;88.65;100803.69;5050209;28;20220;-73
2021/03/21 10:55:34;;;;;;;10.55;2.67;;;6.30;99.90;;;6.78;88.52;100792.47;5046188;28;20200;-73
2021/03/21 10:58:29;;;;;;;13.95;2.83;;;6.30;99.90;;;6.83;88.68;100809.66;5051999;28;20203;-75
2021/03/21 11:01:32;;;;;;;11.18;2.75;;;6.40;99.90;;;6.89;88.30;100816.50;5052919;28;20197;-74
2021/03/21 11:04:26;;;;;;;17.83;3.40;;;6.40;99.90;;;6.84;88.18;100810.53;5041078;28;20425;-75
2021/03/21 11:07:09;;;;;;;14.80;3.70;;;6.40;99.90;;;6.86;88.23;100817.44;5054625;28;20776;-75
2021/03/21 11:09:48;;;;;;;21.08;3.33;;;6.40;99.90;;;6.90;88.00;100826.84;5046901;28;20211;-73
2021/03/21 11:12:15;;;;;;;14.52;3.97;;;6.40;99.90;;;6.90;88.23;100824.25;5051945;28;20220;-73
2021/03/21 11:14:42;;;;;;;23.67;3.83;;;6.40;99.90;;;6.93;88.10;100829.38;5025426;28;20685;-75
2021/03/21 11:17:21;;;;;;;14.45;2.90;;;6.40;99.90;;;6.94;87.90;100838.91;5040183;28;20207;-74
2021/03/21 11:19:51;;;;;;;20.77;4.60;;;6.40;99.90;;;6.89;87.36;100839.91;5049502;28;20228;-72